Time;durP1;ratioP1;P1;durP2;ratioP2;P2;SDS_P1;SDS_P2;PMS_P1;PMS_P2;Temp;Humidity;BMP_temperature;BMP_pressure;BME280_temperature;BME280_humidity;BME280_pressure;Samples;Min_cycle;Max_cycle;Signal;HPM_P1;HPM_P2
2022/03/11 00:02:18;;;;;;;15.50;7.80;;;;;;;-3.70;36.81;102230.62;107535;1270;109949;-76
2022/03/11 00:04:54;;;;;;;19.10;8.70;;;;;;;-3.72;36.91;102228.14;107655;1270;95804;-76
2022/03/11 00:07:30;;;;;;;15.60;8.00;;;;;;;-3.73;37.15;102231.48;107390;1272;139119;-75
2022/03/11 00:10:03;;;;;;;18.90;8.50;;;;;;;-3.75;37.19;102228.11;107671;1270;110651;-76
2022/03/11 00:12:38;;;;;;;13.40;7.80;;;;;;;-3.76;36.97;102229.80;107578;1269;141227;-76
2022/03/11 00:15:11;;;;;;;17.10;8.60;;;;;;;-3.76;36.92;102231.63;107622;1270;109794;-76
2022/03/11 00:17:45;;;;;;;13.80;7.40;;;;;;;-3.77;36.85;102231.74;107622;1270;142971;-76
2022/03/11 00:20:20;;;;;;;17.10;8.80;;;;;;;-3.77;37.19;102235.64;107724;1270;95128;-76
2022/03/11 00:22:54;;;;;;;15.90;8.30;;;;;;;-3.80;37.27;102237.19;107660;1271;111169;-76
2022/03/11 00:25:26;;;;;;;18.80;9.40;;;;;;;-3.81;37.36;102241.88;107569;1270;139794;-76
2022/03/11 00:28:00;;;;;;;18.60;9.70;;;;;;;-3.83;37.29;102239.38;107718;1269;107897;-76
2022/03/11 00:30:35;;;;;;;22.70;9.50;;;;;;;-3.84;37.47;102240.16;107526;1270;137916;-76
2022/03/11 00:33:07;;;;;;;18.40;9.50;;;;;;;-3.87;37.71;102234.59;107555;1270;95051;-75
2022/03/11 00:35:41;;;;;;;17.30;8.40;;;;;;;-3.85;37.43;102238.06;107510;1270;138216;-76
2022/03/11 00:38:13;;;;;;;16.20;8.30;;;;;;;-3.86;37.57;102233.11;107409;1269;108945;-76
2022/03/11 00:40:45;;;;;;;18.60;9.20;;;;;;;-3.86;37.66;102234.96;107757;1270;108171;-76
2022/03/11 00:43:17;;;;;;;18.00;7.80;;;;;;;-3.87;37.66;102231.83;107548;1270;138337;-76
2022/03/11 00:45:50;;;;;;;19.40;8.60;;;;;;;-3.88;37.42;102231.95;107726;1270;95066;-76
2022/03/11 00:48:23;;;;;;;16.50;8.00;;;;;;;-3.88;37.22;102236.55;107619;1270;137741;-76
2022/03/11 00:50:55;;;;;;;16.40;8.10;;;;;;;-3.89;37.17;102237.83;107629;1270;109056;-76
2022/03/11 00:53:28;;;;;;;19.30;8.50;;;;;;;-3.91;37.33;102237.04;107691;1270;107560;-76
2022/03/11 00:56:00;;;;;;;15.90;8.20;;;;;;;-3.92;37.30;102234.80;107612;1269;140836;-77
2022/03/11 00:58:33;;;;;;;15.00;7.80;;;;;;;-3.93;37.42;102236.61;107721;1270;94855;-76
2022/03/11 01:01:05;;;;;;;15.50;7.60;;;;;;;-3.92;37.36;102238.50;106724;1270;138335;-76
2022/03/11 01:03:38;;;;;;;16.50;8.00;;;;;;;-3.94;37.27;102235.55;106055;1270;108941;-76
2022/03/11 01:06:11;;;;;;;14.40;7.40;;;;;;;-3.95;37.06;102234.63;105918;1269;139493;-76
2022/03/11 01:08:44;;;;;;;21.40;9.20;;;;;;;-3.95;37.09;102234.08;105991;1270;96501;-76
2022/03/11 01:11:17;;;;;;;33.40;16.20;;;;;;;-3.97;37.00;102235.34;105798;1270;96497;-75
2022/03/11 01:13:49;;;;;;;25.20;12.30;;;;;;;-3.98;37.16;102237.64;106002;1270;137729;-76
2022/03/11 01:16:21;;;;;;;19.30;9.60;;;;;;;-4.00;37.19;102233.78;105989;1270;108352;-76
2022/03/11 01:18:54;;;;;;;13.70;7.70;;;;;;;-4.02;37.20;102230.80;105990;1269;138026;-74
2022/03/11 01:21:26;;;;;;;14.70;7.40;;;;;;;-4.04;37.02;102230.70;105994;1270;96844;-76
2022/03/11 01:23:59;;;;;;;16.30;7.40;;;;;;;-4.05;36.95;102233.20;105969;1270;138523;-76
2022/03/11 01:26:31;;;;;;;13.40;6.80;;;;;;;-4.06;37.18;102232.77;106086;1270;111451;-77
2022/03/11 01:29:03;;;;;;;14.00;7.00;;;;;;;-4.09;37.19;102232.27;106235;1270;108804;-77
2022/03/11 01:31:36;;;;;;;11.60;6.70;;;;;;;-4.10;37.07;102230.66;107294;1270;137765;-78
2022/03/11 01:34:09;;;;;;;15.00;7.20;;;;;;;-4.12;37.30;102231.25;107758;1270;94786;-76
2022/03/11 01:36:41;;;;;;;13.00;6.60;;;;;;;-4.12;37.12;102234.63;107676;1270;138281;-76
2022/03/11 01:39:15;;;;;;;16.30;7.70;;;;;;;-4.12;37.33;102235.17;107697;1270;109827;-76
2022/03/11 01:41:47;;;;;;;13.00;6.70;;;;;;;-4.12;37.49;102237.88;107592;1270;139422;-77
2022/03/11 01:44:19;;;;;;;14.30;7.40;;;;;;;-4.11;37.37;102245.91;107684;1269;106479;-76
2022/03/11 01:46:51;;;;;;;14.80;7.50;;;;;;;-4.10;37.59;102249.86;107699;1270;94780;-76
2022/03/11 01:49:24;;;;;;;15.10;8.60;;;;;;;-4.10;37.43;102249.86;107559;1270;138060;-77
2022/03/11 01:51:56;;;;;;;21.50;9.50;;;;;;;-4.10;38.44;102252.75;107771;1270;110007;-76
2022/03/11 01:54:29;;;;;;;25.40;11.40;;;;;;;-4.12;38.58;102257.91;107628;1270;137890;-76
2022/03/11 01:57:01;;;;;;;22.30;11.70;;;;;;;-4.16;39.19;102259.36;107700;1270;109374;-76
2022/03/11 01:59:33;;;;;;;27.50;14.00;;;;;;;-4.19;39.48;102257.31;107660;1270;95106;-76
2022/03/11 02:02:06;;;;;;;23.80;12.70;;;;;;;-4.23;39.84;102256.73;107565;1270;137734;-76
2022/03/11 02:04:38;;;;;;;23.70;12.80;;;;;;;-4.29;39.94;102258.26;107691;1269;110052;-76
2022/03/11 02:07:10;;;;;;;26.90;13.80;;;;;;;-4.34;40.25;102259.96;107566;1269;137764;-76
2022/03/11 02:09:43;;;;;;;27.30;14.60;;;;;;;-4.37;40.26;102259.31;107604;1270;107612;-76
2022/03/11 02:12:29;;;;;;;26.70;13.90;;;;;;;-4.39;40.70;102264.61;107683;1270;137973;-77
2022/03/11 02:15:04;;;;;;;32.60;16.70;;;;;;;-4.43;40.87;102262.67;107724;1270;94909;-77
2022/03/11 02:17:36;;;;;;;28.00;14.70;;;;;;;-4.44;41.18;102263.32;107678;1270;110880;-76
2022/03/11 02:20:10;;;;;;;34.00;15.80;;;;;;;-4.44;41.38;102263.45;107655;1270;139263;-75
2022/03/11 02:22:44;;;;;;;38.30;16.10;;;;;;;-4.45;41.57;102262.54;107633;1270;107702;-75
2022/03/11 02:25:18;;;;;;;35.40;17.20;;;;;;;-4.48;41.64;102260.66;107600;1270;137856;-75
2022/03/11 02:27:50;;;;;;;33.10;16.00;;;;;;;-4.51;41.92;102256.71;107788;1270;94814;-75
2022/03/11 02:30:23;;;;;;;34.40;16.20;;;;;;;-4.54;42.10;102258.26;107614;1270;139018;-76
2022/03/11 02:32:55;;;;;;;33.60;16.30;;;;;;;-4.57;42.03;102262.50;107763;1270;108688;-76
2022/03/11 02:35:29;;;;;;;37.00;16.60;;;;;;;-4.60;42.24;102263.14;107665;1270;107681;-75
2022/03/11 02:38:01;;;;;;;34.70;15.80;;;;;;;-4.66;42.45;102260.94;107652;1270;139109;-76
2022/03/11 02:40:35;;;;;;;34.50;16.60;;;;;;;-4.70;42.61;102265.09;107672;1269;94798;-76
2022/03/11 02:43:07;;;;;;;35.30;17.30;;;;;;;-4.74;42.67;102266.03;107587;1270;138351;-76
2022/03/11 02:45:40;;;;;;;35.70;17.20;;;;;;;-4.76;43.05;102264.67;107760;1269;108729;-76
2022/03/11 02:48:12;;;;;;;28.60;14.70;;;;;;;-4.81;43.22;102267.11;107557;1270;138146;-76
2022/03/11 02:50:45;;;;;;;30.40;15.60;;;;;;;-4.87;43.37;102265.05;107695;1269;95766;-76
2022/03/11 02:53:18;;;;;;;32.20;15.50;;;;;;;-4.91;43.42;102263.93;107692;1270;95206;-76
2022/03/11 02:55:50;;;;;;;30.80;15.80;;;;;;;-4.95;43.71;102261.84;107680;1270;137572;-76
2022/03/11 02:58:22;;;;;;;31.00;14.80;;;;;;;-4.98;43.95;102261.98;106956;1270;108552;-76
2022/03/11 03:00:55;;;;;;;32.30;15.50;;;;;;;-4.99;43.93;102262.93;106042;1270;141438;-77
2022/03/11 03:03:27;;;;;;;38.10;17.60;;;;;;;-5.02;44.06;102265.31;106218;1270;96676;-76
2022/03/11 03:05:59;;;;;;;35.50;17.20;;;;;;;-5.03;44.12;102266.39;105836;1270;138903;-77
2022/03/11 03:08:32;;;;;;;35.70;17.10;;;;;;;-5.06;44.34;102264.88;106129;1270;110674;-75
2022/03/11 03:11:05;;;;;;;36.70;17.40;;;;;;;-5.09;44.38;102267.38;106209;1270;108879;-76
2022/03/11 03:13:37;;;;;;;36.70;18.30;;;;;;;-5.13;44.53;102273.38;106150;1270;137811;-75
2022/03/11 03:16:10;;;;;;;41.90;18.30;;;;;;;-5.18;44.65;102271.62;106186;1270;96671;-75
2022/03/11 03:18:42;;;;;;;39.30;18.80;;;;;;;-5.21;44.99;102270.51;106032;1270;137722;-75
2022/03/11 03:21:16;;;;;;;41.80;19.20;;;;;;;-5.25;44.98;102264.50;106069;1270;110762;-76
2022/03/11 03:23:48;;;;;;;37.90;18.50;;;;;;;-5.27;44.93;102260.80;106092;1270;138821;-77
2022/03/11 03:26:20;;;;;;;38.80;17.50;;;;;;;-5.28;45.00;102256.81;106161;1270;108344;-78
2022/03/11 03:28:53;;;;;;;35.80;17.10;;;;;;;-5.30;45.08;102258.11;106191;1270;96480;-78
2022/03/11 03:31:27;;;;;;;36.00;17.80;;;;;;;-5.29;45.22;102262.03;106065;1268;139722;-78
2022/03/11 03:34:02;;;;;;;30.50;15.80;;;;;;;-5.30;45.32;102260.30;106120;1270;110738;-78
2022/03/11 03:36:34;;;;;;;30.20;14.20;;;;;;;-5.32;45.30;102261.67;105964;1270;138551;-77
2022/03/11 03:39:06;;;;;;;25.60;13.20;;;;;;;-5.32;45.18;102260.66;106101;1270;108819;-78
2022/03/11 03:41:38;;;;;;;32.30;15.00;;;;;;;-5.32;45.17;102261.71;106195;1270;96458;-78
2022/03/11 03:44:10;;;;;;;33.00;14.90;;;;;;;-5.31;45.21;102268.36;106000;1270;138580;-79
2022/03/11 03:46:42;;;;;;;28.50;13.70;;;;;;;-5.31;45.29;102268.02;106136;1270;112188;-77
2022/03/11 03:49:15;;;;;;;35.20;15.30;;;;;;;-5.30;45.29;102265.36;106063;1270;138594;-77
2022/03/11 03:51:47;;;;;;;33.50;14.60;;;;;;;-5.29;45.47;102265.45;106228;1270;108775;-77
2022/03/11 03:54:20;;;;;;;28.70;14.20;;;;;;;-5.27;45.35;102268.29;106103;1270;139379;-76
2022/03/11 03:56:53;;;;;;;24.00;13.00;;;;;;;-5.22;45.35;102267.05;106347;1270;96436;-77
2022/03/11 03:59:25;;;;;;;28.20;14.00;;;;;;;-5.17;45.32;102264.20;106232;1270;110899;-76
2022/03/11 04:01:57;;;;;;;27.70;14.50;;;;;;;-5.13;45.35;102266.44;105858;1271;139471;-78
2022/03/11 04:04:30;;;;;;;33.30;14.50;;;;;;;-5.10;45.41;102263.09;106192;1270;109429;-78
2022/03/11 04:07:03;;;;;;;28.10;13.70;;;;;;;-5.06;45.46;102264.37;107447;1271;140204;-78
2022/03/11 04:09:35;;;;;;;27.40;13.90;;;;;;;-5.02;45.38;102262.58;107778;1270;94814;-79
2022/03/11 04:12:10;;;;;;;31.60;13.30;;;;;;;-4.97;45.18;102261.54;107591;1270;139159;-79
2022/03/11 04:14:42;;;;;;;24.90;12.30;;;;;;;-4.92;45.08;102258.98;107760;1270;108841;-77
2022/03/11 04:17:14;;;;;;;26.70;13.10;;;;;;;-4.86;45.04;102261.53;107566;1270;107751;-77
2022/03/11 04:19:46;;;;;;;25.40;12.60;;;;;;;-4.79;44.95;102263.70;107417;1270;138521;-77
2022/03/11 04:22:19;;;;;;;28.70;12.60;;;;;;;-4.74;44.91;102259.56;107647;1270;94969;-78
2022/03/11 04:24:51;;;;;;;26.00;12.20;;;;;;;-4.71;44.73;102258.41;107609;1269;139650;-79
2022/03/11 04:27:23;;;;;;;26.20;12.00;;;;;;;-4.71;44.51;102261.63;107702;1270;108276;-79
2022/03/11 04:29:56;;;;;;;27.70;13.20;;;;;;;-4.74;44.76;102263.96;107720;1270;108831;-78
2022/03/11 04:32:29;;;;;;;27.00;13.30;;;;;;;-4.73;44.72;102265.59;107520;1270;138800;-78
2022/03/11 04:35:03;;;;;;;24.30;12.50;;;;;;;-4.69;44.74;102262.24;107673;1270;94484;-78
2022/03/11 04:37:35;;;;;;;28.00;12.70;;;;;;;-4.65;44.83;102260.30;107617;1269;138841;-78
2022/03/11 04:40:09;;;;;;;25.00;12.00;;;;;;;-4.63;44.69;102259.95;107807;1270;107821;-79
2022/03/11 04:42:42;;;;;;;24.30;12.20;;;;;;;-4.65;44.64;102257.47;107644;1270;139106;-79
2022/03/11 04:45:14;;;;;;;26.60;12.20;;;;;;;-4.65;44.60;102256.72;107661;1270;94962;-79
2022/03/11 04:47:48;;;;;;;23.40;12.40;;;;;;;-4.67;44.43;102257.64;107768;1270;94900;-80
2022/03/11 04:50:21;;;;;;;27.60;11.60;;;;;;;-4.70;44.72;102255.27;107532;1268;138219;-79
2022/03/11 04:52:54;;;;;;;26.90;12.10;;;;;;;-4.66;44.78;102255.98;107724;1270;107778;-79
2022/03/11 04:55:28;;;;;;;21.60;11.00;;;;;;;-4.59;44.65;102257.29;107466;1270;138706;-79
2022/03/11 04:58:01;;;;;;;22.40;10.90;;;;;;;-4.53;44.62;102254.20;107651;1270;94973;-79
2022/03/11 05:00:34;;;;;;;24.50;11.20;;;;;;;-4.51;44.81;102253.00;107635;1269;138466;-79
2022/03/11 05:03:07;;;;;;;25.40;12.00;;;;;;;-4.48;44.46;102255.93;107622;1270;111600;-79
2022/03/11 05:05:40;;;;;;;23.40;11.60;;;;;;;-4.46;44.30;102255.72;107771;1270;107766;-78
2022/03/11 05:08:14;;;;;;;25.60;11.80;;;;;;;-4.41;44.52;102252.77;107262;1270;139704;-78
2022/03/11 05:10:47;;;;;;;21.40;10.40;;;;;;;-4.38;44.33;102249.88;107509;1271;95067;-79
2022/03/11 05:13:22;;;;;;;23.60;11.20;;;;;;;-4.41;44.40;102255.64;106106;1270;138295;-78
2022/03/11 05:16:24;;;;;;;26.40;11.70;;;;;;;-4.39;44.48;102254.09;106120;1270;112435;-78
2022/03/11 05:18:58;;;;;;;24.40;12.10;;;;;;;-4.32;44.48;102252.48;106891;1268;137607;-79
2022/03/11 05:21:33;;;;;;;29.00;12.80;;;;;;;-4.27;44.37;102253.13;106145;1270;108720;-79
2022/03/11 05:24:50;;;;;;;27.00;12.60;;;;;;;-4.17;44.50;102252.16;106299;1270;97377;-77
2022/03/11 05:27:34;;;;;;;;;;;;;;;;;;;;;
2022/03/11 05:30:25;;;;;;;25.80;12.70;;;;;;;-3.58;44.06;102254.09;107670;1270;110234;-76
2022/03/11 05:37:16;;;;;;;30.10;12.40;;;;;;;-2.12;42.72;102248.41;106337;1270;109244;-78
2022/03/11 05:39:56;;;;;;;24.60;12.10;;;;;;;-1.45;41.89;102254.64;107627;1270;137655;-78
2022/03/11 05:42:29;;;;;;;26.30;12.80;;;;;;;-1.05;41.88;102255.05;107699;1270;94839;-77
2022/03/11 05:45:13;;;;;;;27.30;12.30;;;;;;;-0.75;41.44;102260.36;106801;1274;137878;-78
2022/03/11 05:47:46;;;;;;;27.10;13.50;;;;;;;-0.55;40.54;102268.29;105934;1275;106699;-78
2022/03/11 05:50:32;;;;;;;27.80;12.90;;;;;;;-0.29;39.91;102265.16;105912;1274;139120;-76
2022/03/11 05:53:08;;;;;;;22.20;12.80;;;;;;;0.04;39.38;102273.10;105981;1274;97381;-77
2022/03/11 05:55:41;;;;;;;23.30;12.80;;;;;;;0.51;39.13;102276.48;107266;1274;137742;-77
2022/03/11 05:58:13;;;;;;;25.30;13.00;;;;;;;1.08;38.24;102268.68;107486;1274;109993;-78
2022/03/11 06:00:46;;;;;;;20.80;11.60;;;;;;;1.79;37.32;102270.46;107473;1274;107786;-78
2022/03/11 06:03:20;;;;;;;22.60;12.00;;;;;;;2.61;36.31;102268.30;107358;1270;138306;-78
2022/03/11 06:05:53;;;;;;;21.20;11.80;;;;;;;3.64;35.25;102264.57;107704;1269;95630;-78
2022/03/11 06:08:26;;;;;;;17.50;11.30;;;;;;;4.75;34.01;102264.02;107667;1270;138201;-78
2022/03/11 06:11:22;;;;;;;25.00;12.80;;;;;;;5.94;32.88;102259.71;107482;1270;111801;-75
2022/03/11 06:13:55;;;;;;;19.70;12.30;;;;;;;7.59;32.09;102251.23;107533;1270;137799;-77
2022/03/11 06:16:29;;;;;;;25.20;11.20;;;;;;;9.21;30.91;102248.68;107578;1271;108221;-76
2022/03/11 06:19:05;;;;;;;20.40;11.50;;;;;;;10.65;29.26;102243.16;107698;1270;96422;-77
2022/03/11 06:21:38;;;;;;;18.00;10.90;;;;;;;11.88;28.34;102241.93;107456;1270;138178;-77
2022/03/11 06:24:14;;;;;;;26.20;17.70;;;;;;;13.10;27.28;102241.65;107740;1270;110580;-77
2022/03/11 06:26:47;;;;;;;41.20;27.80;;;;;;;14.36;25.97;102235.60;107646;1270;138167;-77
2022/03/11 06:29:19;;;;;;;17.80;9.40;;;;;;;15.37;25.00;102232.36;107697;1270;107762;-76
2022/03/11 06:31:52;;;;;;;22.10;9.40;;;;;;;16.23;23.44;102233.98;107598;1268;137741;-76
2022/03/11 06:34:25;;;;;;;15.40;8.40;;;;;;;17.15;22.69;102229.17;107664;1270;94785;-77
2022/03/11 06:37:02;;;;;;;13.90;7.80;;;;;;;17.90;21.51;102224.83;107772;1270;111100;-77
2022/03/11 06:39:35;;;;;;;12.60;7.10;;;;;;;18.38;19.51;102221.72;107642;1270;139391;-77
2022/03/11 06:42:09;;;;;;;14.90;7.90;;;;;;;18.72;18.96;102224.98;107753;1270;108887;-76
2022/03/11 06:44:42;;;;;;;13.70;7.40;;;;;;;19.08;18.44;102224.40;107342;1270;137920;-77
2022/03/11 06:47:15;;;;;;;11.10;7.80;;;;;;;19.50;18.25;102225.02;107732;1270;94936;-76
2022/03/11 06:49:49;;;;;;;16.80;9.60;;;;;;;19.95;18.27;102225.19;107525;1270;138337;-76
2022/03/11 06:52:21;;;;;;;12.30;8.50;;;;;;;20.40;17.32;102222.65;107446;1270;111924;-76
2022/03/11 06:54:57;;;;;;;16.20;8.00;;;;;;;20.82;17.33;102224.03;106097;1270;109021;-76
2022/03/11 06:57:31;;;;;;;11.20;7.60;;;;;;;21.16;17.17;102226.96;107581;1270;138223;-75
2022/03/11 07:00:07;;;;;;;11.70;7.00;;;;;;;21.42;16.59;102224.58;107582;1270;96162;-76
2022/03/11 07:02:41;;;;;;;13.60;7.60;;;;;;;21.74;15.88;102220.39;107543;1270;138812;-76
2022/03/11 07:05:17;;;;;;;15.20;6.90;;;;;;;22.09;15.38;102214.11;106924;1270;107289;-77
2022/03/11 07:07:53;;;;;;;10.70;7.30;;;;;;;22.04;14.79;102216.30;105970;1270;137769;-75
2022/03/11 07:10:29;;;;;;;14.90;7.60;;;;;;;22.19;15.01;102214.00;107553;1270;95212;-75
2022/03/11 07:13:01;;;;;;;13.80;7.40;;;;;;;22.44;15.22;102214.14;107649;1269;95052;-76
2022/03/11 07:15:34;;;;;;;13.20;7.60;;;;;;;22.63;14.70;102220.25;107530;1270;137217;-75
2022/03/11 07:18:07;;;;;;;13.10;8.00;;;;;;;22.79;14.82;102222.11;107617;1270;108416;-75
2022/03/11 07:20:40;;;;;;;16.90;8.10;;;;;;;22.99;14.51;102220.73;107507;1270;137412;-76
2022/03/11 07:23:31;;;;;;;16.90;8.10;;;;;;;23.25;14.31;102224.44;107640;1270;94959;-76
2022/03/11 07:26:05;;;;;;;18.30;8.90;;;;;;;23.29;13.96;102221.73;107579;1270;137535;-74
2022/03/11 07:28:37;;;;;;;13.50;8.30;;;;;;;23.35;14.11;102227.63;107568;1270;112553;-75
2022/03/11 07:31:10;;;;;;;12.10;7.80;;;;;;;23.38;13.18;102227.80;107631;1270;107966;-75
2022/03/11 07:33:43;;;;;;;12.00;7.60;;;;;;;22.90;12.68;102232.54;107394;1270;137408;-75
2022/03/11 07:36:16;;;;;;;18.40;7.30;;;;;;;22.32;12.86;102230.86;107712;1270;95590;-76
2022/03/11 07:38:49;;;;;;;13.30;7.00;;;;;;;22.25;13.29;102237.60;107614;1270;137384;-75
2022/03/11 07:41:22;;;;;;;12.50;7.00;;;;;;;22.36;13.21;102233.35;107575;1270;110158;-74
2022/03/11 07:43:55;;;;;;;13.40;6.70;;;;;;;22.61;13.19;102232.96;107609;1270;137698;-75
2022/03/11 07:46:46;;;;;;;13.10;7.10;;;;;;;22.63;12.94;102233.89;107725;1270;111119;-75
2022/03/11 07:49:18;;;;;;;13.10;6.40;;;;;;;22.73;12.89;102235.50;107650;1270;94668;-75
2022/03/11 07:51:52;;;;;;;10.70;6.60;;;;;;;22.63;12.47;102238.52;107544;1270;137926;-75
2022/03/11 07:54:25;;;;;;;7.90;5.90;;;;;;;22.56;12.40;102237.61;107562;1272;111431;-75
2022/03/11 07:57:00;;;;;;;10.90;6.00;;;;;;;22.61;12.17;102235.24;107538;1270;138064;-76
2022/03/11 07:59:34;;;;;;;8.40;6.30;;;;;;;22.50;12.10;102237.08;107689;1270;106043;-76
2022/03/11 08:02:07;;;;;;;13.10;6.40;;;;;;;22.37;12.19;102237.17;107200;1261;137627;-75
2022/03/11 08:04:40;;;;;;;9.20;6.20;;;;;;;22.34;12.44;102233.11;107603;1273;94787;-76
2022/03/11 08:07:14;;;;;;;10.70;5.50;;;;;;;22.38;12.05;102239.45;107549;1272;111322;-76
2022/03/11 08:09:47;;;;;;;8.80;5.50;;;;;;;22.25;12.02;102234.23;107509;1272;137530;-74
2022/03/11 08:12:20;;;;;;;16.80;6.90;;;;;;;22.07;12.03;102228.03;107525;1273;106836;-75
2022/03/11 08:14:53;;;;;;;10.10;6.60;;;;;;;21.97;11.85;102230.09;107526;1271;137505;-75
2022/03/11 08:17:26;;;;;;;11.00;6.60;;;;;;;21.87;12.11;102226.48;107662;1271;95718;-78
2022/03/11 08:19:59;;;;;;;10.50;6.70;;;;;;;21.92;11.85;102232.83;107465;1271;137559;-74
2022/03/11 08:22:34;;;;;;;8.30;5.70;;;;;;;21.78;11.71;102227.64;107632;1271;107814;-74
2022/03/11 08:25:10;;;;;;;10.70;5.90;;;;;;;21.75;11.59;102224.78;107579;1271;107854;-75
2022/03/11 08:27:45;;;;;;;11.10;6.90;;;;;;;21.97;12.05;102224.23;107582;1271;138139;-75
2022/03/11 08:30:18;;;;;;;11.60;6.10;;;;;;;22.34;11.96;102224.38;107615;1271;94666;-77
2022/03/11 08:32:51;;;;;;;11.80;6.10;;;;;;;22.63;11.90;102221.50;107429;1271;137369;-75
2022/03/11 08:35:23;;;;;;;12.00;6.10;;;;;;;22.58;11.59;102221.22;107634;1273;109040;-76
2022/03/11 08:37:56;;;;;;;12.10;6.40;;;;;;;22.46;11.09;102219.53;107673;1268;139089;-75
2022/03/11 08:40:28;;;;;;;11.90;6.00;;;;;;;21.96;11.26;102227.86;107731;1271;94575;-75
2022/03/11 08:43:02;;;;;;;14.30;6.10;;;;;;;21.56;11.38;102233.27;107759;1271;94861;-75
2022/03/11 08:45:36;;;;;;;11.60;6.20;;;;;;;21.42;11.28;102240.34;107621;1271;138014;-76
2022/03/11 08:48:10;;;;;;;9.80;5.30;;;;;;;21.23;11.66;102234.65;107751;1271;109137;-77
2022/03/11 08:50:43;;;;;;;11.80;6.20;;;;;;;21.42;11.16;102236.78;107360;1272;137396;-75
2022/03/11 08:53:16;;;;;;;12.60;6.40;;;;;;;21.41;11.65;102230.99;107630;1271;94736;-77
2022/03/11 08:55:49;;;;;;;11.20;5.60;;;;;;;21.56;12.09;102228.16;107591;1271;137744;-75
2022/03/11 08:58:21;;;;;;;11.70;6.50;;;;;;;21.93;12.13;102218.95;107621;1271;109061;-76
2022/03/11 09:00:53;;;;;;;11.70;6.30;;;;;;;22.19;11.66;102219.44;107449;1271;109101;-75
2022/03/11 09:03:26;;;;;;;11.00;5.80;;;;;;;22.00;11.19;102221.78;107421;1271;137894;-73
2022/03/11 09:06:00;;;;;;;8.40;5.20;;;;;;;21.53;11.02;102229.20;107475;1271;96456;-75
2022/03/11 09:08:32;;;;;;;8.80;5.90;;;;;;;21.21;10.90;102228.14;107452;1271;139235;-74
2022/03/11 09:11:08;;;;;;;7.70;5.50;;;;;;;21.08;11.57;102222.89;107485;1271;112449;-76
2022/03/11 09:13:43;;;;;;;10.50;5.70;;;;;;;21.21;11.71;102223.20;107528;1271;138624;-74
2022/03/11 09:16:16;;;;;;;9.80;6.90;;;;;;;21.28;11.89;102218.28;107545;1271;107552;-76
2022/03/11 09:18:49;;;;;;;9.50;5.00;;;;;;;21.57;11.56;102225.63;107459;1271;96504;-75
2022/03/11 09:21:23;;;;;;;9.70;5.40;;;;;;;21.38;10.94;102220.15;107431;1270;137943;-74
2022/03/11 09:23:55;;;;;;;8.50;5.90;;;;;;;20.90;10.34;102216.97;107637;1271;107936;-71
2022/03/11 09:26:28;;;;;;;10.00;4.40;;;;;;;20.13;10.51;102216.69;107482;1271;138094;-72
2022/03/11 09:29:23;;;;;;;9.80;4.60;;;;;;;19.33;10.57;102215.38;107629;1271;107814;-73
2022/03/11 09:31:55;;;;;;;8.70;4.70;;;;;;;18.82;10.93;102220.08;107488;1271;138053;-74
2022/03/11 09:34:28;;;;;;;7.60;4.60;;;;;;;18.59;11.51;102218.02;107406;1271;95288;-73
2022/03/11 09:37:05;;;;;;;9.00;5.20;;;;;;;18.72;11.54;102217.97;107638;1271;108894;-75
2022/03/11 09:39:38;;;;;;;10.80;4.50;;;;;;;18.76;11.56;102213.95;107492;1271;137314;-74
2022/03/11 09:42:11;;;;;;;9.10;4.80;;;;;;;18.86;11.87;102212.70;107602;1271;109151;-75
2022/03/11 09:44:53;;;;;;;8.30;4.10;;;;;;;19.19;11.77;102209.93;107352;1271;137530;-74
2022/03/11 09:47:25;;;;;;;7.90;4.60;;;;;;;19.45;11.99;102206.13;107459;1271;95199;-76
2022/03/11 09:49:58;;;;;;;8.60;4.50;;;;;;;19.84;11.41;102202.67;107461;1271;137903;-75
2022/03/11 09:52:35;;;;;;;8.40;4.10;;;;;;;19.47;10.81;102203.74;107583;1271;107870;-76
2022/03/11 09:55:13;;;;;;;6.50;3.90;;;;;;;19.21;11.52;102203.31;107444;1271;109442;-77
2022/03/11 09:57:46;;;;;;;6.20;4.00;;;;;;;19.22;11.38;102204.85;107505;1271;137496;-75
2022/03/11 10:00:21;;;;;;;7.80;4.20;;;;;;;19.11;11.32;102200.71;107522;1271;94835;-75
2022/03/11 10:02:59;;;;;;;7.40;4.70;;;;;;;19.05;11.21;102204.08;107517;1270;137615;-74
2022/03/11 10:05:48;;;;;;;6.00;4.10;;;;;;;18.84;11.19;102199.21;107623;1270;105989;-74
2022/03/11 10:08:35;;;;;;;9.00;4.10;;;;;;;18.52;11.41;102198.55;107590;1271;138232;-75
2022/03/11 10:11:26;;;;;;;9.30;4.30;;;;;;;18.13;10.90;102198.97;107623;1270;94865;-76
2022/03/11 10:14:07;;;;;;;8.10;4.90;;;;;;;17.16;10.91;102203.64;107457;1271;138933;-76
2022/03/11 10:16:41;;;;;;;6.90;4.50;;;;;;;16.18;10.99;102212.18;107587;1271;110093;-76
2022/03/11 10:19:16;;;;;;;11.30;5.20;;;;;;;15.40;11.43;102208.84;107543;1271;109054;-76
2022/03/11 10:21:51;;;;;;;13.00;5.50;;;;;;;14.83;12.07;102202.42;107509;1271;137585;-75
2022/03/11 10:24:24;;;;;;;12.40;5.10;;;;;;;14.60;12.21;102202.15;107579;1270;95862;-76
2022/03/11 10:26:58;;;;;;;9.70;4.20;;;;;;;14.12;11.94;102198.54;107416;1271;137490;-73
2022/03/11 10:29:34;;;;;;;6.50;4.10;;;;;;;13.46;11.91;102207.70;107630;1271;111226;-73
2022/03/11 10:32:08;;;;;;;8.20;4.80;;;;;;;12.82;12.22;102209.63;107511;1270;139886;-75
2022/03/11 10:34:42;;;;;;;7.70;4.20;;;;;;;12.37;12.54;102206.56;107587;1271;108971;-74
2022/03/11 10:37:16;;;;;;;7.10;4.30;;;;;;;11.76;12.61;102211.67;107684;1271;94642;-73
2022/03/11 10:39:50;;;;;;;7.00;4.60;;;;;;;11.48;13.36;102206.76;107573;1271;137401;-73
2022/03/11 10:42:24;;;;;;;11.00;4.70;;;;;;;11.41;13.28;102204.35;107718;1271;110109;-74
2022/03/11 10:45:00;;;;;;;7.40;4.50;;;;;;;10.98;13.44;102202.41;107544;1271;139503;-76
2022/03/11 10:47:34;;;;;;;11.40;4.80;;;;;;;10.73;13.99;102201.41;107656;1271;107805;-77
2022/03/11 10:50:11;;;;;;;8.40;4.70;;;;;;;10.90;14.69;102194.96;107525;1270;138564;-77
2022/03/11 10:52:43;;;;;;;;;;;;;;;11.12;14.07;102202.21;107705;1271;95450;-77
2022/03/11 10:55:26;;;;;;;10.10;4.40;;;;;;;10.79;14.22;102204.54;107593;1271;111402;-74
2022/03/11 10:58:00;;;;;;;8.00;4.00;;;;;;;10.49;14.32;102200.41;107503;1271;139330;-75
2022/03/11 11:00:34;;;;;;;6.90;4.00;;;;;;;10.36;14.41;102196.76;107566;1270;108958;-76
2022/03/11 11:03:08;;;;;;;9.00;4.10;;;;;;;10.16;14.79;102202.11;107488;1271;138346;-75
2022/03/11 11:05:41;;;;;;;14.80;4.60;;;;;;;10.27;15.07;102194.31;107604;1271;94619;-76
2022/03/11 11:08:14;;;;;;;8.40;4.60;;;;;;;10.27;14.66;102197.45;107491;1271;137900;-76
2022/03/11 11:10:47;;;;;;;12.40;5.00;;;;;;;10.17;15.24;102197.94;107603;1271;107815;-76
2022/03/11 11:13:20;;;;;;;9.10;4.60;;;;;;;10.22;15.14;102196.56;107578;1271;107847;-76
2022/03/11 11:15:55;;;;;;;10.30;5.40;;;;;;;10.27;15.39;102191.55;107547;1270;138444;-76
2022/03/11 11:18:30;;;;;;;6.70;4.30;;;;;;;10.49;15.62;102187.36;107619;1271;94800;-76
2022/03/11 11:21:08;;;;;;;9.20;5.20;;;;;;;10.65;15.56;102183.17;107569;1271;137793;-74
2022/03/11 11:23:44;;;;;;;8.90;4.50;;;;;;;10.74;15.38;102185.75;107632;1271;109140;-77
2022/03/11 11:26:18;;;;;;;7.70;5.00;;;;;;;10.72;15.44;102188.02;107509;1271;138795;-75
2022/03/11 11:28:51;;;;;;;8.40;4.90;;;;;;;10.76;15.71;102181.24;107680;1271;96452;-75
2022/03/11 11:31:28;;;;;;;9.60;6.30;;;;;;;10.62;15.33;102180.04;107662;1270;94754;-74
2022/03/11 11:34:02;;;;;;;12.10;4.90;;;;;;;10.50;15.45;102176.93;107504;1271;139584;-75
2022/03/11 11:36:41;;;;;;;9.60;5.10;;;;;;;10.32;15.58;102175.73;107652;1271;108071;-76
2022/03/11 11:39:14;;;;;;;10.30;4.90;;;;;;;10.30;15.88;102172.94;107515;1271;137668;-75
2022/03/11 11:41:55;;;;;;;8.30;4.80;;;;;;;10.33;15.89;102169.11;107700;1271;96358;-76